Time;durP1;ratioP1;P1;durP2;ratioP2;P2;SDS_P1;SDS_P2;PMS_P1;PMS_P2;Temp;Humidity;BMP_temperature;BMP_pressure;BME280_temperature;BME280_humidity;BME280_pressure;Samples;Min_cycle;Max_cycle;Signal;HPM_P1;HPM_P2
2021/04/10 00:01:09;;;;;;;12.60;6.50;;;;;;;3.29;66.45;101721.94;5013604;28;20029;-81
2021/04/10 00:03:35;;;;;;;9.95;6.05;;;;;;;3.45;66.00;101718.16;5031264;28;20495;-79
2021/04/10 00:06:01;;;;;;;12.93;5.43;;;;;;;3.13;66.08;101698.38;5031038;28;20040;-78
2021/04/10 00:08:26;;;;;;;15.83;7.43;;;;;;;3.13;66.33;101698.38;5030792;28;20026;-78
2021/04/10 00:10:52;;;;;;;16.07;6.03;;;;;;;3.22;65.96;101691.53;5030867;28;20037;-78
2021/04/10 00:13:17;;;;;;;10.77;5.47;;;;;;;3.07;66.03;101692.00;5013014;28;20021;-77
2021/04/10 00:15:43;;;;;;;10.83;5.97;;;;;;;2.95;66.50;101662.88;5030654;28;20036;-80
2021/04/10 00:18:09;;;;;;;11.07;5.77;;;;;;;3.16;66.19;101698.66;5013244;28;20044;-78
2021/04/10 00:20:34;;;;;;;10.97;6.63;;;;;;;3.00;66.67;101712.63;5013478;28;20017;-79
2021/04/10 00:22:59;;;;;;;9.63;6.00;;;;;;;2.15;69.44;101699.16;5013053;28;20487;-81
2021/04/10 00:25:25;;;;;;;14.33;5.80;;;;;;;2.14;70.35;101715.19;5013282;28;20034;-82
2021/04/10 00:27:50;;;;;;;9.40;5.87;;;;;;;2.46;69.87;101717.22;5031266;28;20102;-81
2021/04/10 00:30:17;;;;;;;22.27;8.53;;;;;;;2.68;68.77;101712.34;5031251;28;20061;-77
2021/04/10 00:32:43;;;;;;;27.87;11.00;;;;;;;2.79;68.24;101688.72;5012990;28;20119;-78
2021/04/10 00:35:09;;;;;;;22.70;12.10;;;;;;;2.98;67.47;101698.88;5013114;28;20034;-79
2021/04/10 00:37:35;;;;;;;16.43;9.40;;;;;;;2.48;67.46;101645.22;5030447;28;20038;-78
2021/04/10 00:40:06;;;;;;;14.60;7.77;;;;;;;2.82;67.85;101704.28;5013240;28;20037;-79
2021/04/10 00:42:32;;;;;;;21.50;8.37;;;;;;;2.60;67.44;101658.13;5013079;28;20032;-79
2021/04/10 00:44:57;;;;;;;17.20;7.87;;;;;;;2.90;67.80;101704.94;5033347;28;20407;-80
2021/04/10 00:47:23;;;;;;;18.33;9.00;;;;;;;2.38;67.80;101618.00;5034414;28;20033;-81
2021/04/10 00:49:48;;;;;;;16.77;8.53;;;;;;;2.83;68.22;101712.81;5016662;28;20026;-78
2021/04/10 00:52:17;;;;;;;15.43;8.87;;;;;;;2.67;68.08;101690.19;5034110;28;20032;-80
2021/04/10 00:54:44;;;;;;;16.00;8.27;;;;;;;2.68;68.22;101692.88;5034852;28;20053;-82
2021/04/10 00:57:10;;;;;;;13.60;8.77;;;;;;;2.57;68.38;101691.91;5016785;28;20026;-80
2021/04/10 00:59:36;;;;;;;22.43;9.70;;;;;;;2.64;68.44;101688.25;5016738;28;20029;-78
2021/04/10 01:02:02;;;;;;;23.80;10.40;;;;;;;2.72;68.95;101707.66;5034617;28;20029;-80
2021/04/10 01:04:28;;;;;;;31.17;11.40;;;;;;;2.80;68.99;101698.13;5016394;28;20400;-77
2021/04/10 01:06:54;;;;;;;15.97;8.17;;;;;;;2.89;68.65;101700.59;5016476;28;20029;-79
2021/04/10 01:09:19;;;;;;;12.83;7.03;;;;;;;2.99;68.45;101687.00;5017036;28;20036;-77
2021/04/10 01:11:45;;;;;;;15.07;7.10;;;;;;;3.19;67.94;101696.38;5034122;28;20057;-76
2021/04/10 01:14:24;;;;;;;14.17;6.97;;;;;;;3.12;67.87;101678.75;5016535;28;20029;-81
2021/04/10 01:16:59;;;;;;;14.48;7.53;;;;;;;3.11;67.87;101692.28;5034450;28;20464;-81
2021/04/10 01:19:53;;;;;;;12.87;6.27;;;;;;;3.01;68.00;101703.34;5016551;28;20041;-78
2021/04/10 01:22:42;;;;;;;33.03;13.53;;;;;;;2.95;68.25;101706.22;5016062;28;20033;-78
2021/04/10 01:25:14;;;;;;;10.70;6.47;;;;;;;2.86;68.26;101698.66;5016322;28;20033;-78
2021/04/10 01:27:46;;;;;;;16.77;8.93;;;;;;;2.71;69.15;101703.31;5033803;28;20036;-78
2021/04/10 01:30:20;;;;;;;12.70;7.70;;;;;;;2.71;68.73;101707.53;5023483;28;20026;-77
2021/04/10 01:32:50;;;;;;;10.00;6.30;;;;;;;2.71;68.55;101703.31;5014734;28;20054;-77
2021/04/10 01:35:18;;;;;;;9.80;7.07;;;;;;;2.69;68.25;101698.84;5013558;28;20091;-75
2021/04/10 01:37:52;;;;;;;10.23;7.27;;;;;;;2.47;68.79;101683.28;5018301;28;20033;-76
2021/04/10 01:40:19;;;;;;;9.23;6.83;;;;;;;2.43;69.15;101690.69;5014304;28;20042;-80
2021/04/10 01:42:46;;;;;;;10.83;6.77;;;;;;;2.45;69.16;101695.91;5030350;28;20025;-85
2021/04/10 01:45:12;;;;;;;11.23;7.90;;;;;;;2.60;68.83;101693.81;5015945;28;20499;-78
2021/04/10 01:47:38;;;;;;;58.07;23.73;;;;;;;2.70;69.26;101690.44;5015505;28;20040;-78
2021/04/10 01:50:05;;;;;;;20.10;12.03;;;;;;;2.69;68.85;101697.22;5033752;28;20036;-79
2021/04/10 01:52:31;;;;;;;13.10;8.23;;;;;;;2.54;68.97;101695.81;5015402;28;20102;-74
2021/04/10 01:54:59;;;;;;;11.53;7.43;;;;;;;2.57;69.00;101688.47;5015552;28;20160;-73
2021/04/10 01:57:25;;;;;;;10.30;7.40;;;;;;;2.53;68.93;101694.03;5015561;28;20124;-74
2021/04/10 01:59:51;;;;;;;10.67;7.30;;;;;;;2.50;68.56;101679.38;5033049;28;20075;-73
2021/04/10 02:02:17;;;;;;;9.27;6.70;;;;;;;2.38;68.96;101683.38;5033298;28;20025;-74
2021/04/10 02:04:45;;;;;;;10.73;6.67;;;;;;;2.19;70.12;101675.72;5015375;28;20399;-74
2021/04/10 02:07:12;;;;;;;23.30;9.93;;;;;;;2.17;70.99;101689.97;5033249;28;20140;-73
2021/04/10 02:09:42;;;;;;;12.87;7.00;;;;;;;2.14;71.08;101685.50;5033118;28;20484;-74
2021/04/10 02:12:08;;;;;;;18.83;10.00;;;;;;;2.16;70.93;101676.34;5033250;28;20037;-73
2021/04/10 02:14:35;;;;;;;20.20;10.30;;;;;;;2.21;70.18;101677.66;5033123;28;20479;-79
2021/04/10 02:17:01;;;;;;;10.53;6.87;;;;;;;2.35;69.52;101691.63;5032837;28;20072;-74
2021/04/10 02:19:26;;;;;;;10.63;7.13;;;;;;;2.23;69.82;101686.34;5014699;28;20025;-75
2021/04/10 02:21:52;;;;;;;10.97;7.30;;;;;;;2.15;69.75;101697.47;5031550;28;20034;-76
2021/04/10 02:24:19;;;;;;;12.53;7.10;;;;;;;2.15;70.25;101694.06;4995716;28;20423;-75
2021/04/10 02:26:44;;;;;;;11.13;7.70;;;;;;;2.03;69.71;101676.91;5024590;28;20117;-74
2021/04/10 02:29:10;;;;;;;9.93;7.00;;;;;;;1.73;69.33;101627.53;5014392;28;20108;-74
2021/04/10 02:31:42;;;;;;;8.13;6.37;;;;;;;2.10;69.28;101686.88;5031693;28;20037;-75
2021/04/10 02:34:27;;;;;;;11.87;6.90;;;;;;;1.90;69.58;101681.63;4989704;28;20456;-74
2021/04/10 02:36:58;;;;;;;10.93;7.20;;;;;;;1.69;70.67;101695.84;4990526;28;20041;-75
2021/04/10 02:39:26;;;;;;;11.20;8.33;;;;;;;1.61;70.65;101700.22;4990067;28;20038;-74
2021/04/10 02:41:54;;;;;;;24.40;15.80;;;;;;;1.27;71.61;101699.59;4974150;28;20165;-74
2021/04/10 02:44:25;;;;;;;31.27;21.27;;;;;;;1.18;72.03;101708.91;4990303;28;20034;-75
2021/04/10 02:46:56;;;;;;;30.33;20.90;;;;;;;1.19;71.97;101710.72;4989812;28;20120;-74
2021/04/10 02:49:26;;;;;;;28.50;21.77;;;;;;;1.06;72.36;101704.47;4989862;28;20038;-74
2021/04/10 02:51:57;;;;;;;23.17;17.07;;;;;;;0.88;72.84;101698.50;4990175;28;20030;-75
2021/04/10 02:54:29;;;;;;;24.20;15.00;;;;;;;0.93;72.83;101706.59;4989752;28;20551;-75
2021/04/10 02:57:16;;;;;;;11.67;9.90;;;;;;;0.93;72.74;101702.38;4989861;28;20022;-73
2021/04/10 02:59:45;;;;;;;11.60;8.17;;;;;;;0.98;73.01;101690.13;4988655;28;20049;-74
2021/04/10 03:02:12;;;;;;;11.38;7.22;;;;;;;1.07;72.11;101692.63;4973345;28;20217;-74
2021/04/10 03:04:41;;;;;;;12.93;9.43;;;;;;;0.70;73.68;101694.19;4985313;28;20087;-74
2021/04/10 03:07:08;;;;;;;10.90;7.22;;;;;;;0.23;75.61;101701.56;5018483;28;20032;-74
2021/04/10 03:09:37;;;;;;;10.37;7.43;;;;;;;0.17;75.51;101700.94;5031620;28;20037;-75
2021/04/10 03:12:03;;;;;;;9.93;6.88;;;;;;;-0.09;75.32;101706.88;5031815;28;20156;-74
2021/04/10 03:14:30;;;;;;;13.70;8.00;;;;;;;0.02;75.75;101710.50;5031846;28;20430;-74
2021/04/10 03:16:57;;;;;;;14.23;8.70;;;;;;;0.29;73.71;101712.31;5031619;28;20064;-75
2021/04/10 03:19:24;;;;;;;40.77;13.97;;;;;;;0.42;72.65;101709.31;5032143;28;20557;-75
2021/04/10 03:21:49;;;;;;;30.90;13.97;;;;;;;0.12;71.97;101631.94;5014070;28;20479;-75
2021/04/10 03:24:16;;;;;;;19.93;11.40;;;;;;;0.45;72.09;101704.56;5031254;28;20032;-75
2021/04/10 03:26:42;;;;;;;15.20;8.97;;;;;;;0.45;72.60;101714.72;5014083;28;20076;-74
2021/04/10 03:29:09;;;;;;;15.27;9.10;;;;;;;0.48;72.95;101718.44;5013937;28;20491;-73
2021/04/10 03:31:35;;;;;;;18.97;10.90;;;;;;;0.59;72.59;101714.41;5031702;28;20033;-74
2021/04/10 03:34:04;;;;;;;23.33;14.10;;;;;;;0.66;72.40;101708.28;5010061;28;20498;-74
2021/04/10 03:36:30;;;;;;;19.83;10.97;;;;;;;0.69;71.82;101706.03;5010608;28;20084;-75
2021/04/10 03:38:56;;;;;;;14.00;9.07;;;;;;;0.78;71.99;101704.34;5010213;28;20026;-75
2021/04/10 03:41:24;;;;;;;17.40;9.37;;;;;;;0.99;71.10;101711.38;5011542;28;20084;-74
2021/04/10 03:43:50;;;;;;;12.23;8.60;;;;;;;1.13;70.35;101711.03;5010655;28;20102;-75
2021/04/10 03:46:16;;;;;;;14.77;9.20;;;;;;;1.20;69.80;101712.53;5011580;28;20030;-74
2021/04/10 03:48:41;;;;;;;15.43;8.17;;;;;;;0.89;69.59;101667.25;5010380;28;20647;-75
2021/04/10 03:51:07;;;;;;;13.67;8.13;;;;;;;1.17;69.49;101712.22;5011158;28;20524;-75
2021/04/10 03:53:32;;;;;;;11.50;7.23;;;;;;;1.21;69.48;101721.91;5010451;28;20030;-74
2021/04/10 03:55:58;;;;;;;14.10;7.90;;;;;;;1.04;69.84;101731.38;5010332;28;20472;-75
2021/04/10 03:58:23;;;;;;;11.47;8.27;;;;;;;0.65;70.79;101721.75;5011892;28;20037;-74
2021/04/10 04:00:49;;;;;;;12.53;8.17;;;;;;;0.74;70.80;101717.53;5011616;28;20034;-74
2021/04/10 04:03:14;;;;;;;13.67;8.97;;;;;;;0.71;71.03;101709.63;5008626;28;20037;-75
2021/04/10 04:05:40;;;;;;;15.33;10.13;;;;;;;0.40;70.76;101672.69;5008752;28;20038;-74
2021/04/10 04:08:06;;;;;;;16.57;11.47;;;;;;;0.57;71.52;101727.72;5008621;28;20431;-74
2021/04/10 04:10:31;;;;;;;17.47;11.10;;;;;;;0.58;71.94;101732.94;4969740;28;20093;-74
2021/04/10 04:12:57;;;;;;;15.67;11.40;;;;;;;0.20;73.15;101730.09;4969843;28;20101;-73
2021/04/10 04:15:22;;;;;;;14.60;10.97;;;;;;;0.09;74.29;101736.63;4970035;28;20042;-75
2021/04/10 04:17:48;;;;;;;15.20;9.90;;;;;;;0.21;73.97;101733.50;4953551;28;20038;-74
2021/04/10 04:23:13;;;;;;;14.82;9.70;;;;;;;0.17;73.34;101741.59;5084620;23;20070;-74
2021/04/10 04:25:38;;;;;;;17.43;10.13;;;;;;;0.37;72.67;101739.34;5051468;28;20029;-75
2021/04/10 04:28:04;;;;;;;17.37;10.77;;;;;;;0.44;71.93;101748.50;5014965;28;20068;-75
2021/04/10 04:30:30;;;;;;;13.20;9.43;;;;;;;0.50;72.19;101743.09;5021923;28;20017;-75
2021/04/10 04:32:55;;;;;;;20.40;10.43;;;;;;;0.56;71.72;101742.06;5030609;28;20100;-75
2021/04/10 04:35:21;;;;;;;15.57;9.53;;;;;;;0.56;71.85;101751.31;5013259;28;20018;-75
2021/04/10 04:37:46;;;;;;;15.93;10.17;;;;;;;0.70;71.77;101750.13;5030693;28;20076;-74
2021/04/10 04:40:13;;;;;;;14.10;9.87;;;;;;;0.84;71.56;101754.91;5030656;28;20037;-74
2021/04/10 04:42:38;;;;;;;25.93;14.57;;;;;;;0.87;71.75;101756.84;5019489;28;20018;-74
2021/04/10 04:45:06;;;;;;;57.50;25.17;;;;;;;0.88;71.82;101753.56;5003577;28;20026;-74
2021/04/10 04:47:32;;;;;;;23.47;14.37;;;;;;;1.09;70.89;101754.72;5009455;28;20563;-75
2021/04/10 04:49:58;;;;;;;20.30;11.70;;;;;;;0.73;70.77;101690.31;5022666;28;20115;-74
2021/04/10 04:52:23;;;;;;;17.53;11.17;;;;;;;1.17;71.13;101758.00;5012527;28;20056;-74
2021/04/10 04:54:49;;;;;;;17.63;11.53;;;;;;;1.29;70.44;101757.50;5012755;28;20037;-75
2021/04/10 04:57:14;;;;;;;13.67;9.77;;;;;;;1.40;70.76;101761.06;5030359;28;20034;-75
2021/04/10 04:59:40;;;;;;;92.07;32.10;;;;;;;1.28;69.86;101749.72;5028793;28;20045;-75
2021/04/10 05:02:05;;;;;;;44.27;19.07;;;;;;;0.95;71.46;101764.47;5012447;28;20055;-75
2021/04/10 05:04:31;;;;;;;25.43;14.13;;;;;;;0.53;72.28;101692.59;5030435;28;20472;-76
2021/04/10 05:06:57;;;;;;;20.47;12.83;;;;;;;1.06;72.21;101760.41;5030145;28;20232;-75
2021/04/10 05:09:22;;;;;;;17.83;11.13;;;;;;;1.25;72.13;101762.19;5012308;28;20025;-75
2021/04/10 05:11:50;;;;;;;18.23;11.40;;;;;;;1.41;72.43;101774.72;5030258;28;20033;-76
2021/04/10 05:14:15;;;;;;;16.57;11.67;;;;;;;1.18;72.46;101722.53;5015305;28;20108;-74
2021/04/10 05:16:41;;;;;;;19.60;13.03;;;;;;;1.60;72.05;101777.34;5015576;28;20114;-80
2021/04/10 05:19:06;;;;;;;16.67;12.10;;;;;;;1.25;71.91;101696.91;4993214;28;20026;-77
2021/04/10 05:21:32;;;;;;;22.60;12.53;;;;;;;1.75;71.84;101766.03;4992526;28;20057;-75
2021/04/10 05:23:57;;;;;;;18.20;12.03;;;;;;;1.90;72.25;101770.78;5011600;28;20045;-80
2021/04/10 05:26:23;;;;;;;20.23;13.30;;;;;;;1.91;72.45;101770.03;4995598;28;20036;-80
2021/04/10 05:28:48;;;;;;;29.63;15.63;;;;;;;1.97;71.99;101770.59;4993741;28;20038;-76
2021/04/10 05:31:14;;;;;;;19.10;10.93;;;;;;;1.75;72.66;101755.84;5012548;28;20039;-78
2021/04/10 05:33:42;;;;;;;116.03;39.20;;;;;;;1.71;73.70;101775.81;4996298;28;20121;-75
2021/04/10 05:36:07;;;;;;;87.07;41.73;;;;;;;1.47;73.91;101701.50;4998163;28;20029;-75
2021/04/10 05:38:33;;;;;;;183.27;57.90;;;;;;;1.96;73.64;101770.41;5019096;28;20100;-75
2021/04/10 05:40:59;;;;;;;306.20;89.63;;;;;;;2.10;72.95;101773.50;5033247;28;20029;-78
2021/04/10 05:43:24;;;;;;;44.43;21.83;;;;;;;1.99;73.14;101752.91;5021314;28;20033;-76
2021/04/10 05:45:50;;;;;;;30.87;16.27;;;;;;;1.99;73.96;101763.97;5015341;28;20099;-77
2021/04/10 05:48:16;;;;;;;33.13;16.50;;;;;;;2.32;74.84;101762.72;5030265;28;20029;-78
2021/04/10 05:50:41;;;;;;;32.13;17.97;;;;;;;2.21;73.71;101745.56;5012929;28;20412;-79
2021/04/10 05:53:07;;;;;;;38.20;21.63;;;;;;;2.31;74.06;101738.00;4997833;28;20030;-79
2021/04/10 05:55:33;;;;;;;28.73;19.73;;;;;;;2.50;73.96;101739.66;4994780;28;20033;-77
2021/04/10 05:57:58;;;;;;;19.77;12.57;;;;;;;2.85;72.93;101753.00;4992947;28;20552;-79
2021/04/10 06:00:24;;;;;;;28.53;18.27;;;;;;;3.05;71.69;101744.56;4976804;28;20137;-78
2021/04/10 06:02:51;;;;;;;20.23;13.50;;;;;;;3.15;70.96;101745.34;4991888;28;20022;-81
2021/04/10 06:05:19;;;;;;;17.60;10.73;;;;;;;3.36;70.91;101746.34;4975436;28;20105;-75
2021/04/10 06:07:47;;;;;;;13.20;10.30;;;;;;;3.25;70.62;101679.03;5009751;28;20045;-77
2021/04/10 06:10:14;;;;;;;14.53;9.17;;;;;;;3.45;72.25;101751.34;4989624;28;20031;-77
2021/04/10 06:12:41;;;;;;;203.87;80.07;;;;;;;3.46;72.60;101732.69;5005087;28;20049;-78
2021/04/10 06:15:08;;;;;;;434.63;136.60;;;;;;;3.28;72.41;101684.41;5002767;28;20038;-79
2021/04/10 06:17:34;;;;;;;63.67;26.07;;;;;;;3.74;73.36;101738.53;4975361;28;20452;-78
2021/04/10 06:19:59;;;;;;;27.43;14.10;;;;;;;3.80;70.97;101733.00;4995323;28;20034;-80
2021/04/10 06:22:25;;;;;;;23.93;10.77;;;;;;;4.18;67.50;101748.13;4990617;28;20053;-80
2021/04/10 06:24:51;;;;;;;16.70;9.70;;;;;;;4.19;67.36;101735.47;4978678;28;20603;-77
2021/04/10 06:27:17;;;;;;;165.20;47.20;;;;;;;4.44;66.62;101740.06;5002825;28;20042;-78
2021/04/10 06:29:42;;;;;;;34.47;16.70;;;;;;;4.43;66.72;101743.38;4993693;28;20058;-77
2021/04/10 06:32:08;;;;;;;20.50;10.97;;;;;;;4.56;66.67;101746.94;4997232;28;20049;-78
2021/04/10 06:34:34;;;;;;;20.17;10.83;;;;;;;4.47;65.61;101747.06;5014785;28;20026;-81
2021/04/10 06:37:00;;;;;;;14.00;8.93;;;;;;;4.74;62.62;101750.13;5014831;28;20024;-77
2021/04/10 06:39:25;;;;;;;14.47;7.60;;;;;;;4.73;62.54;101744.09;5032443;28;20041;-77
2021/04/10 06:41:51;;;;;;;14.00;8.20;;;;;;;4.91;63.07;101731.91;5031799;28;20057;-80
2021/04/10 06:44:16;;;;;;;10.55;6.30;;;;;;;5.17;61.40;101733.06;5032025;28;20112;-76
2021/04/10 06:46:42;;;;;;;11.40;6.60;;;;;;;5.46;59.90;101731.91;5032204;28;20040;-77
2021/04/10 06:49:10;;;;;;;10.32;7.30;;;;;;;5.69;60.51;101743.94;5014971;28;20518;-80
2021/04/10 06:51:39;;;;;;;9.65;6.32;;;;;;;5.74;59.01;101698.16;5014633;28;20091;-78
2021/04/10 06:54:07;;;;;;;11.70;6.40;;;;;;;5.99;57.37;101736.81;5032264;28;20104;-75
2021/04/10 06:56:37;;;;;;;8.88;5.88;;;;;;;6.06;58.57;101723.69;5032188;28;20036;-79
2021/04/10 06:59:34;;;;;;;16.55;7.55;;;;;;;6.14;58.38;101714.00;5014452;28;20052;-79
2021/04/10 07:02:01;;;;;;;7.95;5.18;;;;;;;6.40;57.00;101721.09;5031850;28;20037;-76
2021/04/10 07:04:27;;;;;;;16.88;8.27;;;;;;;6.60;57.58;101732.84;5014319;28;20029;-76
2021/04/10 07:06:52;;;;;;;11.50;6.13;;;;;;;6.71;55.54;101722.47;5014386;28;20029;-77
2021/04/10 07:09:18;;;;;;;11.52;5.43;;;;;;;6.84;54.72;101732.84;5031662;28;20142;-78
2021/04/10 07:11:44;;;;;;;8.73;5.13;;;;;;;6.89;54.57;101740.84;5032382;28;20487;-75
2021/04/10 07:14:09;;;;;;;24.58;10.68;;;;;;;6.84;52.48;101725.13;5014421;28;20033;-76
2021/04/10 07:16:39;;;;;;;13.20;5.88;;;;;;;7.05;54.71;101717.16;5031801;28;20120;-75
2021/04/10 07:19:15;;;;;;;8.38;5.00;;;;;;;7.30;51.79;101727.50;5031933;28;20033;-79
2021/04/10 07:21:40;;;;;;;9.75;4.47;;;;;;;7.43;51.56;101717.31;5027172;28;20061;-79
2021/04/10 07:24:06;;;;;;;8.07;4.60;;;;;;;7.44;50.83;101713.06;5031698;28;20075;-77
2021/04/10 07:26:58;;;;;;;6.50;4.30;;;;;;;7.61;48.23;101720.28;5014354;28;20060;-77
2021/04/10 07:29:30;;;;;;;6.82;4.40;;;;;;;7.77;50.29;101722.19;5013855;28;20030;-77
2021/04/10 07:31:57;;;;;;;6.65;3.83;;;;;;;7.72;48.83;101718.41;5013739;28;20480;-77
2021/04/10 07:34:23;;;;;;;7.05;4.70;;;;;;;7.82;48.46;101693.34;5013785;28;20033;-78
2021/04/10 07:36:59;;;;;;;7.43;4.38;;;;;;;8.07;47.66;101703.59;5013678;28;20509;-78
2021/04/10 07:39:25;;;;;;;6.63;4.80;;;;;;;8.23;46.01;101710.66;5031858;28;20105;-77
2021/04/10 07:42:23;;;;;;;7.72;4.70;;;;;;;8.34;48.25;101708.81;5031652;28;20108;-77
2021/04/10 07:44:50;;;;;;;9.93;5.70;;;;;;;8.04;48.22;101680.28;4964282;28;20041;-77
2021/04/10 07:47:15;;;;;;;7.95;5.07;;;;;;;8.18;49.29;101694.03;4953834;28;20034;-78
2021/04/10 07:49:40;;;;;;;8.32;5.45;;;;;;;7.67;50.75;101678.66;4962064;28;20468;-77
2021/04/10 07:52:07;;;;;;;134.68;49.10;;;;;;;7.89;50.45;101693.88;4970275;28;20113;-77
2021/04/10 07:54:37;;;;;;;13.75;8.13;;;;;;;8.34;49.17;101704.53;4969442;28;20027;-77
2021/04/10 07:57:07;;;;;;;;;;;;;;;8.55;49.20;101697.38;4954407;28;20041;-77
2021/04/10 07:59:54;;;;;;;9.32;5.50;;;;;;;8.35;48.98;101628.22;4970052;28;19924;-77
2021/04/10 08:02:22;;;;;;;7.80;4.95;;;;;;;8.76;48.45;101685.78;4970183;28;20122;-77
2021/04/10 08:04:55;;;;;;;8.85;4.80;;;;;;;9.00;48.18;101691.63;4953944;28;20035;-77
2021/04/10 08:07:31;;;;;;;32.00;13.68;;;;;;;9.03;48.95;101676.34;4970209;28;20039;-78
2021/04/10 08:10:04;;;;;;;7.32;4.93;;;;;;;9.20;47.88;101690.28;4970470;28;20026;-78
2021/04/10 08:12:33;;;;;;;7.13;5.00;;;;;;;9.43;48.69;101689.09;4954452;28;20041;-78
2021/04/10 08:14:59;;;;;;;11.38;6.07;;;;;;;9.58;48.10;101680.53;4970272;28;20038;-78
2021/04/10 08:17:42;;;;;;;9.27;5.70;;;;;;;9.63;47.45;101679.13;4954384;28;20106;-77
2021/04/10 08:20:25;;;;;;;8.52;5.28;;;;;;;9.80;45.33;101677.56;4970408;28;20536;-78
2021/04/10 08:22:53;;;;;;;9.32;6.10;;;;;;;9.53;47.43;101651.88;5031188;28;20061;-78
2021/04/10 08:25:30;;;;;;;9.20;4.95;;;;;;;9.95;46.95;101687.91;5013448;28;20069;-76
2021/04/10 08:27:57;;;;;;;6.75;4.38;;;;;;;10.00;43.64;101677.03;5031329;28;20033;-77
2021/04/10 08:30:23;;;;;;;6.32;4.45;;;;;;;9.92;43.03;101680.88;5013457;28;20029;-78
2021/04/10 08:32:49;;;;;;;8.95;5.10;;;;;;;9.97;43.95;101684.59;5013596;28;20049;-82
2021/04/10 08:35:14;;;;;;;10.95;6.35;;;;;;;10.00;41.24;101673.56;5031208;28;20503;-78
2021/04/10 08:37:42;;;;;;;7.60;4.72;;;;;;;10.27;39.46;101668.22;5013578;28;20086;-78
2021/04/10 08:40:09;;;;;;;7.47;4.88;;;;;;;10.52;39.42;101673.16;5013739;28;20464;-79
2021/04/10 08:42:41;;;;;;;9.15;6.07;;;;;;;10.60;41.42;101676.16;5013322;28;20107;-80
2021/04/10 08:45:08;;;;;;;7.65;4.28;;;;;;;10.77;37.46;101672.81;5013005;28;20029;-79
2021/04/10 08:47:36;;;;;;;7.45;4.38;;;;;;;10.91;36.95;101675.28;5031241;28;20037;-76
2021/04/10 08:50:03;;;;;;;15.98;8.43;;;;;;;10.98;39.07;101667.94;5013153;28;20053;-79
2021/04/10 08:52:32;;;;;;;6.90;4.00;;;;;;;10.95;36.77;101656.53;5013621;28;20033;-77
2021/04/10 08:54:59;;;;;;;6.55;4.15;;;;;;;10.96;36.85;101659.19;5030876;28;20034;-78
2021/04/10 08:57:40;;;;;;;9.35;5.45;;;;;;;11.05;33.88;101669.16;5013376;28;20033;-84
2021/04/10 09:00:26;;;;;;;9.82;5.40;;;;;;;11.15;35.55;101653.34;5031387;28;20032;-80
2021/04/10 09:02:57;;;;;;;9.10;5.00;;;;;;;11.44;32.37;101653.09;5013394;28;20025;-79
2021/04/10 09:05:25;;;;;;;9.13;4.15;;;;;;;11.60;32.91;101654.78;5032435;28;20136;-78
2021/04/10 09:07:50;;;;;;;7.50;4.50;;;;;;;11.49;33.22;101656.84;5034653;28;20033;-78
2021/04/10 09:10:26;;;;;;;6.47;4.07;;;;;;;11.66;33.42;101649.94;5034562;28;20025;-78
2021/04/10 09:13:10;;;;;;;7.20;3.85;;;;;;;11.83;33.90;101650.81;5034427;28;20059;-77
2021/04/10 09:15:36;;;;;;;6.20;4.00;;;;;;;11.52;34.24;101646.63;5016599;28;20060;-78
2021/04/10 09:18:05;;;;;;;8.25;3.70;;;;;;;11.71;35.42;101637.25;5029269;28;20038;-81
2021/04/10 09:20:46;;;;;;;6.75;3.88;;;;;;;11.76;32.92;101644.44;5032288;28;20025;-80
2021/04/10 09:23:31;;;;;;;37.95;15.65;;;;;;;11.84;33.63;101615.47;5045958;28;20136;-81
2021/04/10 09:26:10;;;;;;;6.70;3.72;;;;;;;11.90;32.52;101631.28;5007642;28;20037;-80
2021/04/10 09:28:59;;;;;;;5.80;3.47;;;;;;;11.95;34.96;101632.41;4999509;28;20864;-81
2021/04/10 09:31:40;;;;;;;5.65;3.75;;;;;;;12.18;31.45;101633.59;5013352;28;20495;-81
2021/04/10 09:34:41;;;;;;;7.57;4.18;;;;;;;12.05;31.49;101633.78;5025731;28;20402;-77
2021/04/10 09:37:26;;;;;;;5.25;3.20;;;;;;;11.93;33.84;101595.22;5033662;28;20132;-78
2021/04/10 09:40:09;;;;;;;5.13;3.15;;;;;;;11.95;32.48;101586.72;4973284;28;20058;-79
2021/04/10 09:42:38;;;;;;;5.05;3.25;;;;;;;12.07;31.98;101559.69;4953486;29;20497;-78
2021/04/10 09:45:05;;;;;;;5.53;3.47;;;;;;;12.64;31.91;101615.91;4937554;29;20038;-78
2021/04/10 09:48:00;;;;;;;6.35;3.03;;;;;;;12.74;33.16;101612.94;4937505;29;20035;-80
2021/04/10 09:50:34;;;;;;;8.93;3.33;;;;;;;12.84;32.69;101603.88;4953773;29;20035;-77
2021/04/10 09:53:20;;;;;;;6.53;3.30;;;;;;;13.05;31.17;101589.28;4968384;28;20043;-78
2021/04/10 09:55:47;;;;;;;5.93;3.17;;;;;;;12.74;30.56;101580.13;4971139;28;20043;-77
2021/04/10 09:58:15;;;;;;;14.27;7.45;;;;;;;13.01;29.71;101592.56;4971614;28;20505;-78
2021/04/10 10:00:50;;;;;;;5.10;3.25;;;;;;;13.36;30.04;101592.38;4968667;28;20046;-78
2021/04/10 10:03:18;;;;;;;4.40;3.10;;;;;;;13.57;28.39;101592.41;4953160;28;20583;-78
2021/04/10 10:05:46;;;;;;;4.07;2.83;;;;;;;13.61;30.50;101581.38;4955675;28;20039;-78
2021/04/10 10:08:17;;;;;;;6.03;3.30;;;;;;;13.52;29.39;101573.16;4953090;28;20113;-78
2021/04/10 10:10:51;;;;;;;6.05;3.65;;;;;;;13.72;29.86;101590.47;4953673;28;20046;-76
2021/04/10 10:13:19;;;;;;;4.47;2.78;;;;;;;13.00;29.13;101572.66;4972214;28;20074;-77
2021/04/10 10:15:48;;;;;;;5.82;2.97;;;;;;;13.65;30.07;101577.19;4971469;28;20039;-77
2021/04/10 10:18:18;;;;;;;5.25;2.90;;;;;;;13.73;30.69;101568.91;4955057;28;20492;-77
2021/04/10 10:21:12;;;;;;;6.53;2.53;;;;;;;13.94;30.76;101565.41;4971586;28;20035;-77
2021/04/10 10:24:00;;;;;;;5.15;3.15;;;;;;;13.81;28.94;101552.78;4960315;28;20054;-77
2021/04/10 10:26:31;;;;;;;7.95;3.80;;;;;;;13.80;29.12;101518.13;4980179;28;20035;-78
2021/04/10 10:29:05;;;;;;;7.80;2.70;;;;;;;14.23;30.04;101555.28;4981081;28;20034;-78
2021/04/10 10:31:51;;;;;;;7.60;3.85;;;;;;;14.42;30.40;101556.00;4980562;28;20030;-81
2021/04/10 10:34:22;;;;;;;4.65;2.47;;;;;;;14.49;27.72;101534.63;4965917;28;20104;-79
2021/04/10 10:36:50;;;;;;;5.18;2.85;;;;;;;14.53;28.47;101542.63;4965798;28;20030;-79
2021/04/10 10:39:30;;;;;;;7.85;3.20;;;;;;;14.39;29.98;101503.13;4978566;28;20050;-78
2021/04/10 10:41:59;;;;;;;4.85;2.58;;;;;;;14.79;29.33;101541.84;4980941;28;20026;-77
2021/04/10 10:44:25;;;;;;;8.10;4.07;;;;;;;14.63;28.99;101538.66;4963723;28;20198;-77
2021/04/10 10:47:05;;;;;;;4.57;2.60;;;;;;;14.58;28.45;101529.81;4942953;29;20550;-76
2021/04/10 10:49:31;;;;;;;5.32;3.25;;;;;;;14.64;27.24;101526.53;4941867;29;20176;-78
2021/04/10 10:51:57;;;;;;;5.07;2.90;;;;;;;14.60;27.76;101522.06;4926366;29;20517;-78
2021/04/10 10:54:36;;;;;;;4.22;2.40;;;;;;;14.63;30.79;101533.47;4953356;28;20117;-76
2021/04/10 10:57:05;;;;;;;;;;;;;;;14.65;29.40;101521.41;4968902;28;20113;-77
2021/04/10 10:59:33;;;;;;;3.92;2.53;;;;;;;14.43;29.57;101513.63;4955404;28;19969;-78
2021/04/10 11:01:58;;;;;;;4.28;2.67;;;;;;;14.51;29.28;101522.59;4978958;28;20089;-77
2021/04/10 11:04:28;;;;;;;4.90;2.97;;;;;;;14.84;28.06;101516.91;4964789;28;20026;-78
2021/04/10 11:06:57;;;;;;;6.70;4.25;;;;;;;14.93;28.41;101501.66;4965842;28;20138;-79
2021/04/10 11:09:26;;;;;;;5.25;2.90;;;;;;;15.18;31.87;101513.78;4980506;28;20498;-79
2021/04/10 11:11:55;;;;;;;5.53;2.92;;;;;;;15.46;28.77;101498.25;4981377;28;20157;-81
2021/04/10 11:14:29;;;;;;;4.57;2.85;;;;;;;15.61;29.02;101488.31;4964351;28;20062;-79
2021/04/10 11:16:56;;;;;;;4.45;3.03;;;;;;;15.51;27.07;101476.75;4992465;28;20129;-78
2021/04/10 11:19:35;;;;;;;4.78;2.50;;;;;;;15.48;26.50;101492.25;4989052;28;20400;-77
2021/04/10 11:22:06;;;;;;;4.13;2.60;;;;;;;15.67;26.64;101480.72;4963195;28;20047;-78
2021/04/10 11:24:39;;;;;;;6.38;2.65;;;;;;;15.97;28.20;101476.47;4971670;28;20033;-79
2021/04/10 11:27:23;;;;;;;4.63;2.70;;;;;;;16.07;25.46;101467.22;4989898;28;20052;-78
2021/04/10 11:30:09;;;;;;;5.68;2.42;;;;;;;16.05;25.69;101467.19;4989948;28;20833;-78
2021/04/10 11:32:45;;;;;;;8.45;2.80;;;;;;;16.16;24.97;101481.41;4971383;28;20480;-78
2021/04/10 11:35:16;;;;;;;13.82;5.57;;;;;;;16.33;26.86;101481.03;4987941;28;20034;-81
2021/04/10 11:37:48;;;;;;;39.00;18.42;;;;;;;16.44;28.38;101470.91;4986816;28;20413;-78